Time;durP1;ratioP1;P1;durP2;ratioP2;P2;SDS_P1;SDS_P2;PMS_P1;PMS_P2;Temp;Humidity;BMP_temperature;BMP_pressure;BME280_temperature;BME280_humidity;BME280_pressure;Samples;Min_cycle;Max_cycle;Signal;HPM_P1;HPM_P2
2023/06/21 04:22:32;;;;;;;12.95;7.00;;;;;;;18.25;100.00;100257.97;5109768;27;20741;-68
2023/06/21 04:24:58;;;;;;;13.38;7.88;;;;;;;18.25;100.00;100268.75;5108530;28;20036;-68
2023/06/21 04:27:23;;;;;;;12.20;7.10;;;;;;;18.26;100.00;100252.38;5109745;28;20411;-68
2023/06/21 04:29:49;;;;;;;14.05;6.85;;;;;;;18.36;100.00;100235.66;5108150;28;20032;-68
2023/06/21 04:32:14;;;;;;;11.63;6.65;;;;;;;18.38;100.00;100233.56;5109759;28;20160;-68
2023/06/21 04:34:43;;;;;;;11.05;7.40;;;;;;;18.41;100.00;100228.56;5109712;28;20040;-68
2023/06/21 04:37:09;;;;;;;10.60;6.43;;;;;;;18.44;100.00;100227.28;5109619;28;20115;-68
2023/06/21 04:39:35;;;;;;;13.50;7.50;;;;;;;18.33;100.00;100239.66;5109384;28;20048;-69
2023/06/21 04:42:00;;;;;;;15.18;7.55;;;;;;;18.40;100.00;100247.66;5109424;28;20466;-68
2023/06/21 04:44:27;;;;;;;12.88;6.95;;;;;;;18.43;100.00;100231.03;5109443;28;20052;-67
2023/06/21 04:46:55;;;;;;;13.00;7.47;;;;;;;18.52;100.00;100229.69;5109412;28;20077;-67
2023/06/21 04:49:25;;;;;;;10.40;6.55;;;;;;;18.62;100.00;100223.75;5109182;28;20122;-67
2023/06/21 04:51:57;;;;;;;12.85;6.95;;;;;;;18.63;100.00;100239.69;5109418;28;20476;-67
2023/06/21 04:54:24;;;;;;;13.00;7.25;;;;;;;18.66;100.00;100247.38;5109366;28;20036;-67
2023/06/21 04:56:50;;;;;;;12.18;7.43;;;;;;;18.70;100.00;100253.13;5109199;28;20558;-67
2023/06/21 04:59:16;;;;;;;12.88;6.30;;;;;;;18.80;100.00;100241.81;5108993;28;20071;-67
2023/06/21 05:01:42;;;;;;;11.60;6.78;;;;;;;18.80;100.00;100255.31;5108364;28;20070;-68
2023/06/21 05:04:07;;;;;;;13.43;6.45;;;;;;;18.80;100.00;100255.31;5108661;28;20039;-67
2023/06/21 05:06:32;;;;;;;15.85;7.32;;;;;;;18.86;100.00;100257.13;5109043;28;20040;-67
2023/06/21 05:08:58;;;;;;;13.38;7.15;;;;;;;18.89;100.00;100257.47;5108793;28;20036;-67
2023/06/21 05:11:23;;;;;;;13.43;6.85;;;;;;;18.86;100.00;100260.63;5108911;28;20063;-67
2023/06/21 05:13:49;;;;;;;14.35;7.03;;;;;;;18.84;100.00;100257.31;5108894;28;20127;-68
2023/06/21 05:16:14;;;;;;;9.38;5.90;;;;;;;18.87;100.00;100254.19;5108897;28;20036;-68
2023/06/21 05:18:39;;;;;;;13.63;5.78;;;;;;;18.91;100.00;100251.88;5108550;28;20032;-63
2023/06/21 05:21:05;;;;;;;12.25;5.65;;;;;;;18.95;100.00;100253.03;5108566;28;20493;-57
2023/06/21 05:23:30;;;;;;;9.98;5.97;;;;;;;18.97;100.00;100243.69;5108746;28;20043;-56
2023/06/21 05:25:56;;;;;;;10.45;6.60;;;;;;;19.09;100.00;100216.69;5108592;28;20047;-54
2023/06/21 05:28:21;;;;;;;11.70;6.45;;;;;;;19.16;100.00;100230.09;5108238;28;20067;-56
2023/06/21 05:30:47;;;;;;;9.93;6.32;;;;;;;19.17;100.00;100235.31;5108328;28;20032;-54
2023/06/21 05:33:13;;;;;;;11.48;6.80;;;;;;;19.22;100.00;100226.50;5098834;28;20101;-56
2023/06/21 05:35:38;;;;;;;9.55;5.68;;;;;;;19.28;100.00;100222.06;5094836;28;20040;-56
2023/06/21 05:38:04;;;;;;;11.82;6.30;;;;;;;19.33;100.00;100224.88;5094937;28;20044;-54
2023/06/21 05:40:29;;;;;;;12.50;5.25;;;;;;;19.42;100.00;100237.81;5094589;28;20428;-54
2023/06/21 05:43:00;;;;;;;8.57;6.53;;;;;;;19.50;100.00;100250.19;5094749;28;20032;-53
2023/06/21 05:45:26;;;;;;;8.57;5.97;;;;;;;19.59;100.00;100258.81;5094789;28;20043;-55
2023/06/21 05:47:52;;;;;;;9.60;6.20;;;;;;;19.67;100.00;100261.97;5094821;28;20111;-57
2023/06/21 05:50:17;;;;;;;10.18;5.10;;;;;;;19.82;100.00;100276.91;5094386;28;20032;-53
2023/06/21 05:52:42;;;;;;;11.57;5.82;;;;;;;19.90;100.00;100279.31;5094551;28;20066;-52
2023/06/21 05:55:08;;;;;;;11.07;5.57;;;;;;;19.96;100.00;100284.59;5093117;28;20481;-56
2023/06/21 05:57:33;;;;;;;12.15;6.45;;;;;;;20.02;100.00;100291.78;5094560;28;20063;-55
2023/06/21 05:59:59;;;;;;;9.40;6.13;;;;;;;20.08;100.00;100291.88;5094021;28;20040;-53
2023/06/21 06:02:24;;;;;;;11.38;5.28;;;;;;;20.09;100.00;100293.53;5094483;28;20408;-56
2023/06/21 06:04:50;;;;;;;15.10;5.60;;;;;;;20.14;100.00;100305.28;5094427;28;20074;-54
2023/06/21 06:07:15;;;;;;;9.50;4.78;;;;;;;20.17;100.00;100296.72;5094331;28;20097;-55
2023/06/21 06:09:40;;;;;;;10.15;5.93;;;;;;;20.19;100.00;100294.59;5093996;28;20047;-58
2023/06/21 06:12:06;;;;;;;14.13;5.55;;;;;;;20.23;100.00;100295.78;5094131;28;20036;-55
2023/06/21 06:14:31;;;;;;;10.13;5.10;;;;;;;20.23;100.00;100298.47;5094300;28;20039;-56
2023/06/21 06:16:57;;;;;;;12.15;5.45;;;;;;;20.24;100.00;100308.22;5094126;28;20443;-57
2023/06/21 06:19:22;;;;;;;8.98;5.43;;;;;;;20.26;100.00;100316.91;5093821;28;20135;-56
2023/06/21 06:21:48;;;;;;;8.68;5.38;;;;;;;20.26;100.00;100310.69;5092741;28;20040;-55
2023/06/21 06:24:13;;;;;;;8.60;4.93;;;;;;;20.29;100.00;100321.06;5093971;28;20062;-53
2023/06/21 06:26:38;;;;;;;12.05;5.50;;;;;;;20.30;100.00;100318.09;5093872;28;20404;-56
2023/06/21 06:29:04;;;;;;;10.10;6.13;;;;;;;20.41;100.00;100331.84;5093686;28;20075;-54
2023/06/21 06:31:30;;;;;;;10.15;6.05;;;;;;;20.44;100.00;100321.41;5093836;28;20082;-57
2023/06/21 06:33:56;;;;;;;8.07;5.50;;;;;;;20.48;100.00;100327.19;5093875;28;20110;-56
2023/06/21 06:36:21;;;;;;;9.25;5.47;;;;;;;20.55;100.00;100326.00;5093786;28;20044;-57
2023/06/21 06:38:47;;;;;;;12.30;6.40;;;;;;;20.64;100.00;100321.06;5093488;28;20036;-56
2023/06/21 06:41:13;;;;;;;13.88;6.28;;;;;;;20.80;100.00;100317.63;5093627;28;20405;-57
2023/06/21 06:43:38;;;;;;;8.77;5.57;;;;;;;20.87;100.00;100328.31;5093280;28;20032;-54
2023/06/21 06:46:04;;;;;;;12.10;5.88;;;;;;;20.88;100.00;100339.97;5093091;28;20052;-55
2023/06/21 06:48:29;;;;;;;8.05;5.15;;;;;;;20.86;100.00;100337.47;5091919;28;20050;-57
2023/06/21 06:50:55;;;;;;;8.48;5.88;;;;;;;20.87;100.00;100355.41;5093460;28;20047;-53
2023/06/21 06:53:20;;;;;;;9.75;5.43;;;;;;;20.88;100.00;100339.97;5093476;28;20055;-55
2023/06/21 06:55:45;;;;;;;7.95;4.40;;;;;;;20.85;100.00;100339.38;5093283;28;20044;-55
2023/06/21 06:58:11;;;;;;;7.55;4.65;;;;;;;20.86;100.00;100349.16;5093378;28;20040;-55
2023/06/21 07:00:36;;;;;;;6.72;4.40;;;;;;;20.91;100.00;100347.59;5093065;28;20046;-53
2023/06/21 07:03:02;;;;;;;7.50;4.85;;;;;;;20.96;100.00;100351.25;5093285;28;20038;-55
2023/06/21 07:05:27;;;;;;;6.68;4.18;;;;;;;20.99;100.00;100347.22;5093046;28;20477;-55
2023/06/21 07:07:53;;;;;;;7.35;4.07;;;;;;;21.09;100.00;100361.00;5093204;28;20036;-53
2023/06/21 07:10:21;;;;;;;5.53;3.53;;;;;;;21.12;100.00;100357.78;5092730;28;20036;-53
2023/06/21 07:12:47;;;;;;;6.57;4.18;;;;;;;21.29;100.00;100349.78;5093166;28;20036;-55
2023/06/21 07:15:12;;;;;;;8.90;4.10;;;;;;;21.41;100.00;100347.84;5092917;28;20071;-56
2023/06/21 07:17:38;;;;;;;6.75;4.13;;;;;;;21.53;100.00;100334.25;5092987;28;20101;-55
2023/06/21 07:20:06;;;;;;;6.95;4.30;;;;;;;21.67;100.00;100333.69;5092645;28;20036;-56
2023/06/21 07:22:32;;;;;;;10.73;4.75;;;;;;;21.76;100.00;100325.16;5092858;28;20092;-58
2023/06/21 07:24:58;;;;;;;6.18;4.05;;;;;;;21.82;100.00;100318.75;5092786;28;20105;-54
2023/06/21 07:27:25;;;;;;;5.65;3.78;;;;;;;21.95;100.00;100326.56;5092817;28;20592;-57
2023/06/21 07:29:51;;;;;;;8.05;4.05;;;;;;;21.97;100.00;100329.03;5092601;28;20453;-58
2023/06/21 07:32:16;;;;;;;5.75;3.40;;;;;;;22.04;100.00;100326.97;5092675;28;20068;-55
2023/06/21 07:34:42;;;;;;;9.75;5.13;;;;;;;22.18;100.00;100334.56;5092806;28;20036;-55
2023/06/21 07:37:07;;;;;;;8.43;4.40;;;;;;;22.31;100.00;100338.84;5092653;28;20043;-56
2023/06/21 07:39:33;;;;;;;8.25;4.25;;;;;;;22.33;100.00;100339.41;5092283;28;20127;-57
2023/06/21 07:42:03;;;;;;;6.88;4.68;;;;;;;22.46;100.00;100347.19;5092632;28;20067;-65
2023/06/21 07:44:29;;;;;;;8.05;4.40;;;;;;;22.50;100.00;100347.53;5092691;28;20089;-65
2023/06/21 07:46:54;;;;;;;7.47;4.60;;;;;;;22.62;100.00;100358.28;5092536;28;20035;-66
2023/06/21 07:49:19;;;;;;;8.98;4.45;;;;;;;22.77;100.00;100363.94;5092239;28;20122;-65
2023/06/21 07:51:45;;;;;;;7.95;4.57;;;;;;;22.79;100.00;100371.81;5091109;28;20067;-65
2023/06/21 07:54:10;;;;;;;7.50;4.55;;;;;;;22.89;100.00;100380.16;5091076;28;20546;-65
2023/06/21 07:56:36;;;;;;;7.82;4.53;;;;;;;22.99;100.00;100378.38;5092035;28;20047;-65
2023/06/21 07:59:01;;;;;;;9.30;5.20;;;;;;;23.17;100.00;100368.28;5091978;28;20043;-66
2023/06/21 08:01:27;;;;;;;8.65;4.97;;;;;;;23.34;100.00;100368.19;5092185;28;20039;-65
2023/06/21 08:03:52;;;;;;;7.47;4.38;;;;;;;23.40;99.34;100375.31;5092325;28;20040;-65
2023/06/21 08:06:17;;;;;;;5.50;4.25;;;;;;;23.32;97.06;100371.16;5092207;28;20130;-66
2023/06/21 08:08:43;;;;;;;7.38;3.88;;;;;;;23.29;96.47;100382.56;5091885;28;20415;-65
2023/06/21 08:11:09;;;;;;;8.25;4.50;;;;;;;23.25;96.85;100397.72;5092111;28;20032;-65
2023/06/21 08:13:34;;;;;;;5.93;3.97;;;;;;;23.14;98.69;100396.75;5092226;28;20408;-65
2023/06/21 08:15:59;;;;;;;5.70;3.92;;;;;;;22.98;98.17;100397.66;5092116;28;20082;-65
2023/06/21 08:18:25;;;;;;;5.82;3.97;;;;;;;22.93;100.00;100394.84;5091904;28;20046;-65
2023/06/21 08:20:50;;;;;;;6.00;3.78;;;;;;;22.84;100.00;100402.59;5090717;28;20131;-65
2023/06/21 08:23:15;;;;;;;6.28;4.28;;;;;;;22.79;100.00;100409.84;5092038;28;20400;-65
2023/06/21 08:25:41;;;;;;;6.15;4.15;;;;;;;22.67;100.00;100412.66;5092020;28;20047;-65
2023/06/21 08:28:06;;;;;;;7.03;4.68;;;;;;;22.58;100.00;100414.16;5091993;28;20047;-65
2023/06/21 08:30:32;;;;;;;5.35;4.22;;;;;;;22.58;100.00;100409.53;5091696;28;20048;-64
2023/06/21 08:32:57;;;;;;;6.85;4.20;;;;;;;22.60;100.00;100406.56;5091968;28;20036;-66
2023/06/21 08:35:22;;;;;;;7.15;4.32;;;;;;;22.62;100.00;100412.56;5091906;28;20051;-65
2023/06/21 08:37:56;;;;;;;7.28;4.97;;;;;;;22.65;100.00;100412.06;5091936;28;20055;-64
2023/06/21 08:40:26;;;;;;;7.10;4.70;;;;;;;22.59;100.00;100403.03;5091618;28;20067;-64
2023/06/21 08:42:55;;;;;;;6.63;4.70;;;;;;;22.68;100.00;100393.38;5091955;28;20047;-65
2023/06/21 08:45:20;;;;;;;9.05;4.25;;;;;;;22.80;100.00;100398.72;5091728;28;20047;-65
2023/06/21 08:47:47;;;;;;;6.00;3.90;;;;;;;22.85;98.15;100397.97;5091844;28;20036;-65
2023/06/21 08:50:16;;;;;;;9.05;3.90;;;;;;;22.93;97.26;100384.00;5091342;28;20036;-65
2023/06/21 08:52:43;;;;;;;7.03;3.45;;;;;;;22.98;96.06;100375.91;5091748;28;20032;-66
2023/06/21 08:55:09;;;;;;;;;;;;;;;23.05;100.00;100365.69;5092099;28;20054;-65
2023/06/21 08:57:41;;;;;;;6.10;3.65;;;;;;;23.02;97.10;100350.72;5091749;28;19991;-66
2023/06/21 09:00:12;;;;;;;6.40;3.50;;;;;;;23.10;94.68;100359.50;5091370;28;20036;-66
2023/06/21 09:02:46;;;;;;;6.40;3.22;;;;;;;23.02;92.01;100367.03;5091679;28;20357;-66
2023/06/21 09:05:20;;;;;;;5.63;3.40;;;;;;;23.01;91.80;100365.34;5091615;28;20054;-66
2023/06/21 09:07:46;;;;;;;5.30;3.22;;;;;;;22.95;93.47;100350.09;5092846;28;20107;-66
2023/06/21 09:10:15;;;;;;;4.05;3.20;;;;;;;22.93;94.00;100352.22;5095233;28;20491;-66
2023/06/21 09:12:43;;;;;;;4.03;2.85;;;;;;;22.92;92.84;100356.00;5095460;28;20493;-67
2023/06/21 09:15:09;;;;;;;4.40;3.05;;;;;;;22.88;92.93;100352.16;5095226;28;20043;-64
2023/06/21 09:17:37;;;;;;;6.00;3.30;;;;;;;22.84;93.31;100356.44;5095420;28;20066;-64
2023/06/21 09:20:03;;;;;;;4.72;3.38;;;;;;;22.83;94.67;100354.78;5094984;28;20043;-66
2023/06/21 09:22:30;;;;;;;5.93;3.92;;;;;;;22.69;96.30;100359.75;5095176;28;20381;-64
2023/06/21 09:24:56;;;;;;;5.97;3.60;;;;;;;22.71;96.83;100351.34;5095182;28;20135;-65
2023/06/21 09:27:21;;;;;;;5.28;3.85;;;;;;;22.66;95.97;100354.00;5095111;28;20056;-65
2023/06/21 09:29:48;;;;;;;5.70;3.38;;;;;;;22.61;96.80;100364.78;5094829;28;20066;-65
2023/06/21 09:32:13;;;;;;;6.72;3.22;;;;;;;22.55;96.06;100363.06;5095032;28;20036;-65
2023/06/21 09:34:39;;;;;;;3.92;3.03;;;;;;;22.53;95.15;100373.34;5095022;28;20668;-64
2023/06/21 09:37:04;;;;;;;4.53;3.17;;;;;;;22.49;95.98;100373.00;5094910;28;20488;-65
2023/06/21 09:39:29;;;;;;;5.80;3.58;;;;;;;22.42;98.21;100378.59;5094599;28;20044;-64
2023/06/21 09:41:55;;;;;;;4.78;3.53;;;;;;;22.37;97.60;100381.28;5094901;28;20089;-65
2023/06/21 09:44:21;;;;;;;5.32;3.50;;;;;;;22.29;95.87;100389.81;5094747;28;20036;-65
2023/06/21 09:46:47;;;;;;;4.95;3.45;;;;;;;22.32;96.05;100408.31;5094751;28;20123;-65
2023/06/21 09:49:13;;;;;;;4.03;3.50;;;;;;;22.31;96.56;100411.28;5094591;28;20035;-65
2023/06/21 09:51:46;;;;;;;5.78;4.18;;;;;;;22.24;97.41;100411.44;5094599;28;20044;-65
2023/06/21 09:54:11;;;;;;;5.70;3.65;;;;;;;22.27;98.50;100416.38;5094689;28;20089;-65
2023/06/21 09:56:40;;;;;;;4.20;3.30;;;;;;;22.31;97.86;100412.09;5094524;28;20032;-65
2023/06/21 09:59:19;;;;;;;5.70;3.67;;;;;;;22.29;98.34;100413.41;5094339;28;20393;-65
2023/06/21 10:01:46;;;;;;;6.32;3.80;;;;;;;22.32;98.19;100404.78;5094549;28;20058;-66
2023/06/21 10:04:16;;;;;;;4.13;3.35;;;;;;;22.38;97.92;100399.19;5094511;28;20028;-66
2023/06/21 10:06:48;;;;;;;4.88;3.72;;;;;;;22.46;97.22;100408.81;5094458;28;20040;-66
2023/06/21 10:09:14;;;;;;;4.05;3.47;;;;;;;22.52;97.77;100404.28;5094109;28;20038;-66
2023/06/21 10:11:43;;;;;;;4.32;3.35;;;;;;;22.54;96.75;100396.69;5094189;28;20404;-66
2023/06/21 10:14:17;;;;;;;6.38;3.85;;;;;;;22.63;95.98;100400.66;5094303;28;20111;-65
2023/06/21 10:16:42;;;;;;;5.22;4.15;;;;;;;22.71;96.64;100406.47;5094250;28;20036;-67
2023/06/21 10:19:08;;;;;;;5.55;3.65;;;;;;;22.74;95.81;100416.81;5093823;28;20066;-66
2023/06/21 10:21:35;;;;;;;10.38;5.05;;;;;;;22.82;95.82;100422.91;5094096;28;20043;-66
2023/06/21 10:24:05;;;;;;;5.78;4.07;;;;;;;22.72;93.08;100427.13;5094156;28;20039;-65
2023/06/21 10:26:33;;;;;;;7.85;4.22;;;;;;;22.80;94.36;100427.75;5094020;28;20573;-66
2023/06/21 10:29:01;;;;;;;5.22;3.72;;;;;;;22.89;95.98;100434.47;5093722;28;20039;-66
2023/06/21 10:31:29;;;;;;;6.95;4.18;;;;;;;22.91;92.77;100438.56;5093905;28;20092;-64
2023/06/21 10:33:55;;;;;;;5.68;3.78;;;;;;;22.97;93.22;100443.00;5093826;28;20036;-65
2023/06/21 10:36:25;;;;;;;5.07;3.58;;;;;;;23.06;93.07;100445.28;5093908;28;20499;-65
2023/06/21 10:38:58;;;;;;;5.45;4.13;;;;;;;23.16;91.32;100456.28;5093514;28;20424;-65
2023/06/21 10:41:25;;;;;;;6.32;4.68;;;;;;;23.19;90.18;100442.19;5093800;28;20400;-64
2023/06/21 10:43:51;;;;;;;6.68;4.05;;;;;;;23.32;91.38;100447.25;5093744;28;20122;-64
2023/06/21 10:46:18;;;;;;;6.00;4.10;;;;;;;23.43;90.19;100449.03;5093626;28;20062;-64
2023/06/21 10:48:45;;;;;;;5.22;3.80;;;;;;;23.62;90.00;100446.84;5093291;28;20040;-64
2023/06/21 10:51:13;;;;;;;6.18;4.45;;;;;;;24.09;87.74;100454.41;5093395;28;20481;-65
2023/06/21 10:53:40;;;;;;;4.97;3.95;;;;;;;24.60;86.45;100452.97;5092244;28;20036;-64
2023/06/21 10:56:07;;;;;;;6.32;4.50;;;;;;;25.10;80.50;100459.88;5093385;28;20162;-65
2023/06/21 10:58:33;;;;;;;6.50;4.18;;;;;;;25.21;82.65;100447.09;5091858;28;20036;-63
2023/06/21 11:00:59;;;;;;;7.07;4.57;;;;;;;25.20;80.23;100447.38;5093385;28;20381;-64
2023/06/21 11:03:26;;;;;;;6.03;4.82;;;;;;;25.50;81.16;100439.34;5093252;28;20122;-64
2023/06/21 11:06:16;;;;;;;4.60;3.83;;;;;;;25.76;80.74;100437.53;5093192;28;20040;-63
2023/06/21 11:08:41;;;;;;;5.70;4.70;;;;;;;25.93;78.59;100437.28;5092854;28;20055;-63
2023/06/21 11:11:07;;;;;;;5.57;4.13;;;;;;;26.31;78.27;100444.16;5093078;28;20489;-64
2023/06/21 11:13:38;;;;;;;5.13;4.10;;;;;;;26.62;78.48;100445.00;5093092;28;20032;-64
2023/06/21 11:16:17;;;;;;;4.82;4.13;;;;;;;27.07;80.49;100442.50;5093005;28;20133;-66
2023/06/21 11:18:50;;;;;;;5.10;4.15;;;;;;;27.65;72.58;100450.97;5092758;28;20508;-64
2023/06/21 11:21:34;;;;;;;5.68;4.13;;;;;;;27.79;70.20;100438.38;5092927;28;20039;-64
2023/06/21 11:24:05;;;;;;;5.63;3.85;;;;;;;28.21;69.39;100443.25;5092921;28;20174;-64
2023/06/21 11:27:03;;;;;;;9.00;4.25;;;;;;;28.07;67.92;100431.34;5092808;28;20036;-64
2023/06/21 11:29:40;;;;;;;4.97;3.40;;;;;;;28.50;63.14;100437.88;5092575;28;20097;-64
2023/06/21 11:32:12;;;;;;;4.85;3.90;;;;;;;28.63;61.37;100444.59;5092355;28;20122;-64
2023/06/21 11:34:59;;;;;;;5.30;3.92;;;;;;;29.03;61.98;100445.31;5092708;28;20051;-64
2023/06/21 11:37:42;;;;;;;3.88;3.38;;;;;;;29.14;54.29;100442.16;5092532;28;20048;-66
2023/06/21 11:40:14;;;;;;;4.45;3.38;;;;;;;29.42;53.40;100443.19;5092318;28;20134;-66
2023/06/21 11:42:49;;;;;;;4.90;3.28;;;;;;;29.46;54.37;100437.91;5092625;28;20032;-65
2023/06/21 11:45:22;;;;;;;4.47;3.33;;;;;;;29.73;56.72;100445.53;5091453;28;20068;-65
2023/06/21 11:48:03;;;;;;;4.40;3.35;;;;;;;29.89;56.44;100433.25;5092856;28;20040;-65
2023/06/21 11:50:38;;;;;;;4.95;3.72;;;;;;;30.18;54.98;100446.00;5092160;28;20089;-66
2023/06/21 11:53:23;;;;;;;2.63;2.17;;;;;;;30.37;52.39;100448.72;5092468;28;20044;-66
2023/06/21 11:56:10;;;;;;;4.87;2.87;;;;;;;31.11;50.23;100440.56;5092280;28;20089;-66
2023/06/21 11:58:36;;;;;;;4.07;2.50;;;;;;;31.23;50.65;100438.06;5091987;28;20040;-66
2023/06/21 12:01:03;;;;;;;3.28;2.42;;;;;;;31.20;48.54;100434.00;5092307;28;20038;-66
2023/06/21 12:03:28;;;;;;;;;;;;;;;30.90;50.39;100431.84;5092722;28;20459;-66
2023/06/21 12:06:02;;;;;;;2.47;2.10;;;;;;;31.06;47.85;100431.28;5079255;28;20074;-65
2023/06/21 12:08:32;;;;;;;3.75;2.72;;;;;;;31.29;46.60;100431.38;5071685;28;20037;-65
2023/06/21 12:11:01;;;;;;;3.65;2.85;;;;;;;31.41;50.20;100419.84;5071845;28;20093;-66
2023/06/21 12:13:27;;;;;;;3.65;2.72;;;;;;;31.68;48.90;100430.81;5071863;28;20032;-65
2023/06/21 12:15:54;;;;;;;4.13;2.57;;;;;;;31.67;47.99;100434.69;5071761;28;20064;-66
2023/06/21 12:18:21;;;;;;;3.85;3.42;;;;;;;31.39;48.42;100433.94;5071573;28;20457;-66
2023/06/21 12:20:48;;;;;;;3.63;2.58;;;;;;;31.58;47.14;100433.81;5071544;28;20551;-66
2023/06/21 12:23:14;;;;;;;4.88;2.75;;;;;;;32.38;46.72;100435.00;5071936;28;20040;-66
2023/06/21 12:25:51;;;;;;;3.07;2.37;;;;;;;32.46;45.43;100420.44;5071910;28;20029;-66
2023/06/21 12:28:17;;;;;;;;;;;;;;;32.30;46.52;100425.50;5071998;28;20044;-65
2023/06/21 12:30:50;;;;;;;3.67;2.30;;;;;;;32.67;43.95;100421.56;5076781;28;19962;-65
2023/06/21 12:33:16;;;;;;;3.30;2.50;;;;;;;32.33;42.61;100426.84;5071606;28;20024;-66
2023/06/21 12:35:45;;;;;;;3.25;2.47;;;;;;;31.98;45.97;100421.06;5082488;28;20058;-65
2023/06/21 12:38:18;;;;;;;2.70;2.28;;;;;;;31.45;44.86;100412.63;5091818;28;20075;-65
2023/06/21 12:40:52;;;;;;;3.88;3.17;;;;;;;32.02;47.17;100419.31;5091432;28;20032;-65
2023/06/21 12:43:46;;;;;;;3.10;2.40;;;;;;;32.09;45.48;100418.88;5082436;28;20032;-66
2023/06/21 12:46:12;;;;;;;3.65;2.42;;;;;;;32.36;43.42;100415.22;5083747;28;20470;-65
2023/06/21 12:48:43;;;;;;;3.10;2.50;;;;;;;32.01;42.59;100425.94;5090838;28;20098;-65
2023/06/21 12:51:09;;;;;;;4.07;2.50;;;;;;;31.96;43.59;100422.50;5095789;28;20420;-66
2023/06/21 12:53:40;;;;;;;3.00;2.30;;;;;;;32.24;44.30;100428.72;5095766;28;20050;-66
2023/06/21 12:56:07;;;;;;;3.53;2.17;;;;;;;32.41;43.27;100434.38;5095554;28;20040;-66
2023/06/21 12:58:32;;;;;;;2.00;1.60;;;;;;;32.74;40.84;100428.56;5095441;28;20032;-66
2023/06/21 13:00:59;;;;;;;2.47;1.97;;;;;;;32.16;42.00;100424.78;5095675;28;20058;-66
2023/06/21 13:03:25;;;;;;;2.17;1.67;;;;;;;32.89;42.55;100428.97;5095717;28;20389;-66
2023/06/21 13:05:51;;;;;;;3.30;2.17;;;;;;;33.79;39.92;100425.00;5095460;28;20044;-66
2023/06/21 13:08:16;;;;;;;2.40;1.63;;;;;;;33.31;39.73;100423.09;5095329;28;20035;-65
2023/06/21 13:10:42;;;;;;;2.93;2.20;;;;;;;32.93;41.54;100426.41;5094316;28;20378;-66
2023/06/21 13:13:07;;;;;;;3.80;2.07;;;;;;;32.21;42.25;100423.81;5095497;28;20075;-65
2023/06/21 13:15:32;;;;;;;3.20;2.47;;;;;;;32.21;44.22;100429.31;5095268;28;20040;-66
2023/06/21 13:17:58;;;;;;;3.57;2.23;;;;;;;31.32;45.52;100426.09;5095328;28;20063;-66
2023/06/21 13:20:24;;;;;;;2.93;2.00;;;;;;;31.27;45.54;100420.69;5095021;28;20084;-66
2023/06/21 13:22:49;;;;;;;3.20;2.40;;;;;;;31.02;46.08;100424.75;5095309;28;20036;-66
2023/06/21 13:25:15;;;;;;;2.50;2.00;;;;;;;31.00;46.01;100423.44;5095054;28;20532;-66
2023/06/21 13:27:40;;;;;;;3.23;2.47;;;;;;;30.59;44.53;100418.66;5095204;28;20040;-66
2023/06/21 13:30:06;;;;;;;3.47;2.33;;;;;;;30.35;45.73;100415.25;5094914;28;20042;-65
2023/06/21 13:32:31;;;;;;;3.50;2.03;;;;;;;30.25;46.27;100413.47;5095016;28;20040;-66
2023/06/21 13:34:57;;;;;;;3.60;2.20;;;;;;;29.52;45.90;100417.56;5093745;28;20089;-66
2023/06/21 13:37:22;;;;;;;2.85;2.22;;;;;;;29.48;47.57;100412.97;5094950;28;20044;-66
2023/06/21 13:39:48;;;;;;;3.22;2.40;;;;;;;29.43;50.11;100409.16;5094653;28;20040;-66
2023/06/21 13:42:13;;;;;;;2.88;2.45;;;;;;;29.37;49.03;100402.09;5094882;28;20043;-66
2023/06/21 13:44:38;;;;;;;2.88;2.22;;;;;;;29.02;49.41;100403.38;5094833;28;20042;-66
2023/06/21 13:47:04;;;;;;;5.55;2.58;;;;;;;29.36;49.70;100405.16;5094740;28;20450;-65
2023/06/21 13:49:29;;;;;;;4.53;2.47;;;;;;;29.10;48.39;100399.16;5094443;28;20051;-66
2023/06/21 13:51:55;;;;;;;2.63;2.25;;;;;;;29.33;50.98;100401.06;5094607;28;20062;-65
2023/06/21 13:54:22;;;;;;;2.78;2.17;;;;;;;29.22;47.41;100402.31;5094225;28;20043;-65
2023/06/21 13:56:47;;;;;;;3.05;2.45;;;;;;;29.22;48.67;100410.53;5094452;28;20039;-66
2023/06/21 13:59:13;;;;;;;4.13;2.83;;;;;;;29.16;48.04;100401.56;5094465;28;20040;-65
2023/06/21 14:01:39;;;;;;;3.10;2.30;;;;;;;29.12;49.27;100400.50;5094478;28;20036;-65
2023/06/21 14:04:04;;;;;;;3.45;2.20;;;;;;;29.25;49.98;100388.00;5094500;28;20055;-66
2023/06/21 14:06:30;;;;;;;2.40;2.05;;;;;;;29.43;48.49;100392.69;5094354;28;20089;-66
2023/06/21 14:08:55;;;;;;;2.78;2.30;;;;;;;29.43;47.83;100395.44;5094074;28;20040;-65
2023/06/21 14:11:21;;;;;;;4.40;2.25;;;;;;;29.52;47.07;100390.13;5094290;28;20036;-66
2023/06/21 14:13:46;;;;;;;3.47;2.47;;;;;;;29.38;47.15;100386.47;5094211;28;20374;-65
2023/06/21 14:16:12;;;;;;;3.45;2.47;;;;;;;29.57;46.56;100383.75;5094257;28;20036;-65
2023/06/21 14:18:37;;;;;;;2.83;2.13;;;;;;;29.60;47.42;100385.91;5093938;28;20048;-65
2023/06/21 14:21:03;;;;;;;2.60;1.90;;;;;;;29.41;46.83;100381.22;5094040;28;20024;-65
2023/06/21 14:23:28;;;;;;;3.08;2.20;;;;;;;29.40;47.03;100379.56;5094230;28;20505;-65
2023/06/21 14:25:54;;;;;;;4.10;2.85;;;;;;;29.27;47.78;100373.97;5093945;28;20480;-65
2023/06/21 14:28:19;;;;;;;3.60;2.85;;;;;;;29.27;46.68;100387.69;5093666;28;20397;-66
2023/06/21 14:30:44;;;;;;;3.35;2.20;;;;;;;29.12;45.63;100391.47;5093793;28;20050;-65
2023/06/21 14:33:10;;;;;;;3.38;2.05;;;;;;;29.13;45.87;100391.16;5093896;28;20085;-66
2023/06/21 14:35:35;;;;;;;2.65;2.10;;;;;;;28.94;45.90;100390.28;5093760;28;20036;-64
2023/06/21 14:38:01;;;;;;;2.65;2.30;;;;;;;29.16;48.42;100387.84;5093791;28;20043;-66
2023/06/21 14:40:26;;;;;;;3.90;2.10;;;;;;;29.18;46.43;100384.81;5093559;28;20044;-65
2023/06/21 14:42:51;;;;;;;3.08;2.15;;;;;;;28.97;44.88;100386.97;5093728;28;20147;-65
2023/06/21 14:45:17;;;;;;;2.22;1.70;;;;;;;28.91;44.51;100377.16;5093685;28;20071;-65
2023/06/21 14:47:44;;;;;;;2.75;2.20;;;;;;;29.17;46.07;100384.00;5093583;28;20035;-65
2023/06/21 14:50:10;;;;;;;3.00;2.30;;;;;;;28.99;45.67;100381.19;5093294;28;20051;-65
2023/06/21 14:52:35;;;;;;;3.42;2.50;;;;;;;29.15;46.54;100380.72;5093415;28;20040;-66
2023/06/21 14:55:01;;;;;;;3.70;2.35;;;;;;;29.05;47.24;100386.31;5093322;28;20035;-65
2023/06/21 14:57:26;;;;;;;2.13;1.67;;;;;;;29.06;47.13;100387.13;5093246;28;20032;-66
2023/06/21 14:59:52;;;;;;;3.65;1.85;;;;;;;29.14;45.84;100384.56;5093076;28;20036;-66
2023/06/21 15:02:17;;;;;;;3.92;1.85;;;;;;;29.16;44.77;100378.81;5093338;28;20405;-66
2023/06/21 15:04:43;;;;;;;2.75;1.83;;;;;;;29.26;44.07;100375.09;5092852;28;20055;-65
2023/06/21 15:07:12;;;;;;;2.60;1.67;;;;;;;29.25;45.77;100373.47;5092951;28;20042;-65
2023/06/21 15:09:37;;;;;;;4.32;1.80;;;;;;;29.02;45.47;100369.66;5092867;28;20039;-64
2023/06/21 15:12:04;;;;;;;2.55;1.92;;;;;;;29.25;45.63;100373.47;5093065;28;20401;-65
2023/06/21 15:14:29;;;;;;;2.67;2.08;;;;;;;29.17;45.15;100372.19;5093155;28;20051;-65
2023/06/21 15:16:56;;;;;;;3.45;2.22;;;;;;;29.26;46.23;100375.09;5093096;28;20060;-65
2023/06/21 15:19:21;;;;;;;4.38;2.40;;;;;;;29.20;47.90;100374.34;5092837;28;20069;-66
2023/06/21 15:21:49;;;;;;;2.95;2.05;;;;;;;29.16;46.67;100376.06;5092920;28;20040;-66
2023/06/21 15:24:15;;;;;;;3.30;1.92;;;;;;;29.13;46.23;100371.16;5092954;28;20104;-65
2023/06/21 15:26:41;;;;;;;3.85;2.35;;;;;;;29.07;47.41;100366.84;5092855;28;20040;-65
2023/06/21 15:29:07;;;;;;;2.28;1.88;;;;;;;29.12;47.17;100372.25;5092497;28;20528;-65
2023/06/21 15:31:40;;;;;;;4.00;2.22;;;;;;;29.08;45.20;100380.28;5092738;28;20036;-65
2023/06/21 15:34:09;;;;;;;2.55;1.90;;;;;;;29.03;46.21;100374.03;5092791;28;20420;-65
2023/06/21 15:36:34;;;;;;;3.85;1.70;;;;;;;29.09;45.10;100368.19;5092488;28;20509;-65
2023/06/21 15:39:00;;;;;;;2.47;2.03;;;;;;;29.08;45.54;100374.78;5092403;28;20036;-65
2023/06/21 15:41:25;;;;;;;2.30;1.92;;;;;;;29.12;47.00;100375.00;5092691;28;20032;-65
2023/06/21 15:43:50;;;;;;;2.30;1.90;;;;;;;28.91;45.98;100368.94;5092708;28;20072;-65